Latest Weather Observations for Maroochydore

IDQ60901

Issued at 10:55 am EST Wednesday 30 July 2014 (issued every 10 minutes, with the page automatically refreshed every 10 minutes)

About weather observations | Map of Brisbane area stations | Latest observations for Brisbane area | Other Formats
Station Details ID: 040861 Name: SUNSHINE COAST AIRPORT Lat: -26.60 Lon: 153.09 Height: 3.3 m
Data from the previous 72 hours. | See also: Recent months at Maroochydore
Date/Time
EST
Tmp

°C
App
Tmp
°C
Dew
Point
°C
Rel
Hum
%
Delta-T

°C
Wind Press
QNH
hPa
Press
MSL
hPa
Rain
since
9 am
mm
Dir
 
Spd
km/h
Gust
km/h
Spd
kts
Gust
kts
30/10:30am 23.0 19.9 10.4 45 6.9 NNW 17 20 9 11 1022.6 - 0.0
30/10:00am 22.0 19.1 11.1 50 6.0 NNW 17 20 9 11 1022.8 - 0.0
30/09:30am 19.9 18.7 12.7 63 4.0 NNW 11 17 6 9 1023.3 - 0.0
30/09:00am 17.8 17.1 13.3 75 2.5 WNW 9 13 5 7 1023.4 1023.4 0.2
30/08:30am 14.9 14.1 12.9 88 1.1 WNW 9 13 5 7 1023.3 - 0.2
30/08:00am 12.8 11.6 11.5 92 0.7 WNW 9 11 5 6 1023.2 - 0.2
30/07:30am 10.9 9.3 10.1 95 0.4 W 9 13 5 7 1023.1 - 0.2
30/07:00am 9.2 6.8 8.6 96 0.3 WNW 11 13 6 7 1022.8 - 0.2
30/06:30am 8.2 5.9 7.4 95 0.4 WNW 9 13 5 7 1022.7 - 0.2
30/06:00am 8.4 6.5 7.6 95 0.4 NNW 7 9 4 5 1022.4 1022.4 0.2
30/05:30am 10.5 8.1 10.0 97 0.3 NW 13 15 7 8 1022.1 - 0.2
30/05:00am 9.5 7.2 9.0 97 0.2 WSW 11 15 6 8 1022.0 - 0.2
30/04:51am 8.6 5.7 8.0 96 0.3 W 13 13 7 7 1021.6 - 0.2
30/04:30am 8.1 6.2 7.5 96 0.3 WNW 7 11 4 6 1021.4 - 0.2
30/04:00am 9.2 7.7 8.6 96 0.3 W 6 7 3 4 1021.4 - 0.2
30/03:39am 8.4 6.1 7.6 95 0.4 WNW 9 11 5 6 1021.4 - 0.2
30/03:30am 8.4 5.8 7.6 95 0.4 W 11 13 6 7 1021.4 - 0.2
30/03:23am 8.0 5.6 7.2 95 0.4 W 9 11 5 6 1021.4 - 0.2
30/03:03am 8.0 7.0 7.2 95 0.4 WNW 2 7 1 4 1021.4 - 0.2
30/03:01am 8.0 7.4 7.2 95 0.4 CALM 0 6 0 3 1021.4 - 0.2
30/03:00am 8.0 7.4 7.2 95 0.4 CALM 0 0 0 0 1021.4 1021.4 0.2
30/02:41am 8.2 7.6 7.3 94 0.4 CALM 0 6 0 3 1021.4 - 0.2
30/02:30am 8.7 7.8 7.9 95 0.4 WNW 2 7 1 4 1021.5 - 0.2
30/02:28am 8.6 7.3 7.8 95 0.4 WNW 4 7 2 4 1021.5 - 0.2
30/02:00am 7.4 5.2 6.2 92 0.5 WNW 7 9 4 5 1021.4 - 0.2
30/01:56am 7.6 5.5 6.5 93 0.5 WNW 7 7 4 4 1021.4 - 0.2
30/01:30am 9.5 8.4 8.6 94 0.4 WNW 4 7 2 4 1021.5 - 0.2
30/01:01am 9.6 9.3 8.7 94 0.4 CALM 0 0 0 0 1021.7 - 0.2
30/01:00am 9.7 9.4 8.8 94 0.4 CALM 0 0 0 0 1021.7 - 0.2
30/12:46am 9.7 9.4 8.6 93 0.5 CALM 0 0 0 0 1021.8 - 0.2
30/12:30am 10.2 10.0 9.1 93 0.5 CALM 0 0 0 0 1021.8 - 0.2
30/12:28am 10.1 9.9 9.0 93 0.5 CALM 0 0 0 0 1021.8 - 0.2
30/12:00am 10.5 9.3 9.4 93 0.5 WNW 6 7 3 4 1021.8 1021.8 0.2
 
Date/Time
EST
Tmp

°C
App
Tmp
°C
Dew
Point
°C
Rel
Hum
%
Delta-T

°C
Wind Press
QNH
hPa
Press
MSL
hPa
Rain
since
9 am
mm
Dir
 
Spd
km/h
Gust
km/h
Spd
kts
Gust
kts
29/11:44pm 10.6 9.4 9.5 93 0.6 WNW 6 9 3 5 1021.8 - 0.2
29/11:30pm 11.2 11.3 10.3 94 0.5 CALM 0 0 0 0 1021.8 - 0.2
29/11:00pm 11.1 9.4 10.0 93 0.6 W 9 11 5 6 1021.8 - 0.2
29/10:30pm 11.2 9.2 10.1 93 0.6 WNW 11 13 6 7 1021.7 - 0.2
29/10:00pm 11.4 9.4 10.1 92 0.7 W 11 11 6 6 1021.6 - 0.2
29/09:30pm 12.4 11.4 11.1 92 0.7 WNW 7 9 4 5 1021.5 - 0.2
29/09:00pm 13.0 11.8 11.7 92 0.7 NW 9 9 5 5 1021.3 1021.3 0.2
29/08:30pm 13.4 11.9 11.8 90 0.9 NW 11 13 6 7 1021.2 - 0.2
29/08:00pm 14.7 14.0 13.1 90 0.9 NW 9 13 5 7 1021.1 - 0.2
29/07:30pm 13.8 12.6 11.7 87 1.1 NW 9 11 5 6 1020.9 - 0.2
29/07:00pm 15.3 14.5 12.8 85 1.4 NNW 9 11 5 6 1020.7 - 0.2
29/06:30pm 16.5 15.9 13.6 83 1.6 NW 9 9 5 5 1020.5 - 0.2
29/06:00pm 17.4 16.2 14.1 81 1.9 N 13 17 7 9 1020.2 1020.2 0.2
29/05:30pm 18.0 16.8 14.1 78 2.2 N 13 17 7 9 1019.9 - 0.2
29/05:00pm 19.3 17.6 14.6 74 2.7 N 17 22 9 12 1019.6 - 0.2
29/04:30pm 20.6 18.8 14.5 68 3.6 NNE 17 24 9 13 1019.5 - 0.2
29/04:00pm 21.6 19.8 14.5 64 4.2 NE 17 20 9 11 1019.3 - 0.2
29/03:30pm 22.2 20.1 14.6 62 4.5 NE 19 20 10 11 1019.3 - 0.2
29/03:00pm 22.4 18.7 14.0 59 4.9 NNE 26 33 14 18 1019.0 1019.0 0.2
29/02:55pm 22.5 18.3 13.6 57 5.2 NNE 28 33 15 18 1019.0 - 0.2
29/02:30pm 25.2 22.4 6.9 31 9.6 NW 11 15 6 8 1019.0 - 0.2
29/02:00pm 25.6 24.0 8.6 34 9.2 NNW 7 17 4 9 1019.2 - 0.2
29/01:30pm 25.4 23.4 8.8 35 9.0 W 9 20 5 11 1019.6 - 0.2
29/01:00pm 24.6 21.8 8.5 36 8.6 W 13 20 7 11 1020.0 - 0.2
29/12:30pm 24.9 21.7 8.4 35 8.8 WNW 15 26 8 14 1020.5 - 0.2
29/12:00pm 23.9 20.1 9.1 39 8.0 NNW 19 26 10 14 1021.1 1021.1 0.2
29/11:30am 24.1 21.4 11.8 46 7.0 NW 17 26 9 14 1021.7 - 0.2
29/11:00am 22.6 19.0 10.4 46 6.7 NW 20 32 11 17 1022.2 - 0.0
29/10:30am 22.2 19.1 12.2 53 5.6 NW 20 30 11 16 1022.5 - 0.0
29/10:00am 21.1 17.9 11.2 53 5.5 NW 19 30 10 16 1022.8 - 0.0
29/09:30am 20.1 18.3 12.1 60 4.5 NW 13 19 7 10 1023.1 - 0.0
29/09:00am 17.9 16.9 13.4 75 2.5 NW 11 15 6 8 1023.2 1023.2 0.0
29/08:30am 14.8 13.9 12.7 87 1.2 NW 9 11 5 6 1023.2 - 0.0
29/08:00am 12.4 11.1 11.3 93 0.6 WNW 9 11 5 6 1023.1 - 0.0
29/07:30am 10.7 9.0 9.9 95 0.4 W 9 9 5 5 1023.0 - 0.0
29/07:00am 8.9 6.8 8.3 96 0.3 W 9 11 5 6 1022.8 - 0.0
29/06:30am 8.3 5.7 7.7 96 0.3 W 11 13 6 7 1022.5 - 0.0
29/06:02am 8.3 5.3 7.7 96 0.3 W 13 15 7 8 1021.9 - 0.0
29/06:00am 8.3 5.3 7.7 96 0.3 WNW 13 15 7 8 1021.9 1021.9 0.0
29/05:30am 7.2 4.3 6.5 95 0.3 W 11 11 6 6 1021.6 - 0.0
29/05:00am 7.9 5.5 7.1 95 0.4 W 9 9 5 5 1021.4 - 0.0
29/04:55am 8.0 5.7 7.4 96 0.3 W 9 11 5 6 1021.4 - 0.0
29/04:39am 8.5 5.5 7.9 96 0.3 W 13 13 7 7 1021.2 - 0.0
29/04:30am 8.4 5.4 7.8 96 0.3 WNW 13 15 7 8 1021.1 - 0.0
29/04:09am 8.4 5.8 7.8 96 0.3 WNW 11 13 6 7 1021.0 - 0.0
29/04:00am 8.7 5.8 8.1 96 0.3 WNW 13 15 7 8 1020.9 - 0.0
29/03:42am 8.7 6.2 8.1 96 0.3 WNW 11 13 6 7 1021.0 - 0.0
29/03:30am 8.3 5.3 7.7 96 0.3 WNW 13 15 7 8 1020.9 - 0.0
29/03:01am 8.3 5.7 7.7 96 0.3 WNW 11 11 6 6 1021.0 - 0.0
29/03:00am 8.4 5.8 7.8 96 0.3 WNW 11 11 6 6 1021.0 1021.0 0.0
29/02:30am 8.6 5.7 8.0 96 0.3 W 13 13 7 7 1021.1 - 0.0
29/02:14am 8.2 5.1 7.4 95 0.4 W 13 15 7 8 1021.3 - 0.0
29/02:00am 7.7 5.7 7.0 95 0.3 W 7 9 4 5 1021.4 - 0.0
29/01:30am 8.4 6.5 7.6 95 0.4 WNW 7 9 4 5 1021.5 - 0.0
29/01:22am 8.3 6.4 7.5 95 0.4 WNW 7 9 4 5 1021.5 - 0.0
29/01:04am 8.5 6.3 7.7 95 0.4 WNW 9 11 5 6 1021.6 - 0.0
29/01:00am 8.7 6.5 7.9 95 0.4 WNW 9 11 5 6 1021.7 - 0.0
29/12:30am 8.5 6.3 7.7 95 0.4 W 9 11 5 6 1022.0 - 0.0
29/12:09am 8.9 7.1 8.1 95 0.4 W 7 9 4 5 1022.1 - 0.0
29/12:00am 8.7 6.5 7.8 94 0.4 W 9 11 5 6 1022.2 1022.2 0.0
 
Date/Time
EST
Tmp

°C
App
Tmp
°C
Dew
Point
°C
Rel
Hum
%
Delta-T

°C
Wind Press
QNH
hPa
Press
MSL
hPa
Rain
since
9 am
mm
Dir
 
Spd
km/h
Gust
km/h
Spd
kts
Gust
kts
28/11:30pm 9.4 7.0 8.5 94 0.4 W 11 11 6 6 1022.3 - 0.0
28/11:00pm 9.9 7.6 9.1 95 0.4 W 11 11 6 6 1022.3 - 0.0
28/10:30pm 9.6 7.9 8.5 93 0.5 W 7 9 4 5 1022.5 - 0.0
28/10:00pm 9.8 8.2 8.7 93 0.5 W 7 9 4 5 1022.6 - 0.0
28/09:30pm 10.0 8.4 8.9 93 0.5 WSW 7 11 4 6 1022.6 - 0.0
28/09:00pm 10.4 8.9 9.2 92 0.6 W 7 9 4 5 1022.3 1022.3 0.0
28/08:30pm 10.9 9.0 9.2 89 0.8 W 9 11 5 6 1022.0 - 0.0
28/08:00pm 12.5 11.6 10.7 89 0.9 WSW 6 7 3 4 1021.9 - 0.0
28/07:30pm 12.5 10.9 10.2 86 1.2 WNW 9 13 5 7 1021.8 - 0.0
28/07:00pm 13.5 12.0 10.5 82 1.6 NNW 9 11 5 6 1021.5 - 0.0
28/06:30pm 15.0 13.6 11.0 77 2.1 N 9 13 5 7 1021.2 - 0.0
28/06:00pm 17.4 15.3 12.3 72 2.8 NNE 15 17 8 9 1021.0 1021.0 0.0
28/05:30pm 17.9 15.8 12.4 70 3.0 NE 15 20 8 11 1020.8 - 0.0
28/05:00pm 18.3 15.7 12.1 67 3.4 NE 17 20 9 11 1020.8 - 0.0
28/04:30pm 19.4 16.3 11.7 61 4.2 NE 19 24 10 13 1020.6 - 0.0
28/04:00pm 20.1 16.9 11.8 59 4.6 NNE 20 26 11 14 1020.3 - 0.0
28/03:30pm 20.6 16.9 11.5 56 5.0 NE 22 28 12 15 1020.3 - 0.0
28/03:00pm 21.4 18.6 12.5 57 5.0 NE 19 26 10 14 1020.3 1020.3 0.0
28/02:30pm 21.7 18.6 12.3 55 5.3 NE 20 24 11 13 1020.5 - 0.0
28/02:00pm 21.5 18.2 11.5 53 5.6 NE 20 26 11 14 1020.8 - 0.0
28/01:30pm 22.0 19.4 12.0 53 5.6 NE 17 22 9 12 1021.1 - 0.0
28/01:00pm 21.6 18.3 11.6 53 5.6 NE 20 22 11 12 1021.4 - 0.0
28/12:30pm 21.2 18.1 11.5 54 5.4 NE 19 24 10 13 1021.9 - 0.0
28/12:00pm 22.7 20.4 12.9 54 5.6 NE 17 22 9 12 1022.5 1022.5 0.0
28/11:30am 21.6 20.6 13.5 60 4.7 NE 11 15 6 8 1023.2 - 0.0
28/11:00am 20.1 19.0 12.1 60 4.5 E 9 11 5 6 1023.6 - 0.0
28/10:30am 21.9 20.4 10.7 49 6.1 N 9 19 5 10 1024.0 - 0.0
28/10:00am 20.5 19.6 11.2 55 5.1 WNW 7 9 4 5 1024.1 - 0.0
28/09:30am 19.0 19.2 13.2 69 3.3 SW 4 7 2 4 1024.2 - 0.0
28/09:00am 16.4 16.0 12.9 80 1.9 W 7 9 4 5 1024.2 1024.2 0.0
28/08:30am 14.1 13.1 12.3 89 1.0 WNW 9 11 5 6 1024.0 - 0.0
28/08:00am 12.4 11.6 11.6 95 0.4 WNW 7 11 4 6 1024.0 - 0.0
28/07:30am 10.3 8.2 9.7 96 0.3 WNW 11 13 6 7 1023.8 - 0.0
28/07:06am 8.1 5.8 7.5 96 0.3 WNW 9 13 5 7 1023.7 - 0.0
28/07:00am 7.6 4.8 7.0 96 0.3 WNW 11 13 6 7 1023.6 - 0.0
28/06:30am 6.7 4.1 6.0 95 0.3 W 9 11 5 6 1023.5 - 0.0
28/06:00am 6.9 5.6 6.2 95 0.3 W 2 9 1 5 1023.3 1023.3 0.0
28/05:30am 6.8 5.1 6.1 95 0.3 W 4 6 2 3 1023.1 - 0.0
28/05:00am 8.0 6.1 7.4 96 0.3 W 7 7 4 4 1022.8 - 0.0
28/04:52am 8.2 6.3 7.6 96 0.3 W 7 7 4 4 1022.7 - 0.0
28/04:30am 8.1 6.2 7.5 96 0.3 W 7 9 4 5 1022.6 - 0.0
28/04:15am 7.9 5.9 7.3 96 0.3 WSW 7 9 4 5 1022.5 - 0.0
28/04:11am 8.1 6.2 7.5 96 0.3 WSW 7 9 4 5 1022.6 - 0.0
28/04:00am 7.9 5.6 7.3 96 0.3 W 9 9 5 5 1022.6 - 0.0
28/03:45am 7.9 5.9 7.3 96 0.3 W 7 9 4 5 1022.6 - 0.0
28/03:43am 7.9 5.9 7.3 96 0.3 W 7 9 4 5 1022.6 - 0.0
28/03:30am 7.9 5.6 7.3 96 0.3 W 9 9 5 5 1022.6 - 0.0
28/03:00am 8.2 5.9 7.6 96 0.3 W 9 9 5 5 1022.5 1022.5 0.0
28/02:30am 8.1 5.8 7.3 95 0.4 W 9 9 5 5 1022.5 - 0.0
28/02:28am 8.0 5.6 7.2 95 0.4 W 9 9 5 5 1022.5 - 0.0
28/02:21am 8.1 5.8 7.3 95 0.4 W 9 9 5 5 1022.6 - 0.0
28/02:00am 7.9 5.9 7.0 94 0.4 W 7 9 4 5 1022.8 - 0.0
28/01:48am 7.9 5.9 7.0 94 0.4 W 7 9 4 5 1022.9 - 0.0
28/01:34am 8.0 6.0 7.2 95 0.4 W 7 9 4 5 1023.1 - 0.0
28/01:30am 8.3 6.4 7.5 95 0.4 W 7 9 4 5 1023.1 - 0.0
28/01:04am 8.6 6.8 7.8 95 0.4 W 7 9 4 5 1023.3 - 0.0
28/01:00am 9.0 7.3 8.2 95 0.4 W 7 9 4 5 1023.4 - 0.0
28/12:41am 8.4 6.5 7.5 94 0.4 W 7 9 4 5 1023.3 - 0.0
28/12:30am 8.5 6.6 7.6 94 0.4 W 7 9 4 5 1023.3 - 0.0
28/12:00am 8.7 6.5 7.8 94 0.4 W 9 11 5 6 1023.2 1023.2 0.0
 
Date/Time
EST
Tmp

°C
App
Tmp
°C
Dew
Point
°C
Rel
Hum
%
Delta-T

°C
Wind Press
QNH
hPa
Press
MSL
hPa
Rain
since
9 am
mm
Dir
 
Spd
km/h
Gust
km/h
Spd
kts
Gust
kts
27/11:30pm 9.2 7.1 8.3 94 0.4 W 9 9 5 5 1023.5 - 0.0
27/11:00pm 8.6 6.3 7.5 93 0.5 W 9 9 5 5 1023.7 - 0.0
27/10:32pm 9.3 7.2 8.2 93 0.5 W 9 9 5 5 1023.7 - 0.0
27/10:30pm 9.2 7.1 8.1 93 0.5 W 9 9 5 5 1023.7 - 0.0
27/10:14pm 8.9 8.0 7.7 92 0.6 WSW 2 7 1 4 1023.6 - 0.0
27/10:00pm 9.6 8.1 8.4 92 0.6 WSW 6 7 3 4 1023.7 - 0.0
27/09:30pm 10.2 8.8 9.0 92 0.6 WSW 6 7 3 4 1023.6 - 0.0
27/09:00pm 11.3 11.3 9.7 90 0.8 CALM 0 0 0 0 1023.5 1023.5 0.0
27/08:30pm 11.6 10.2 9.7 88 1.0 WSW 7 9 4 5 1023.5 - 0.0
27/08:00pm 12.4 11.3 10.0 85 1.2 WSW 6 9 3 5 1023.3 - 0.0
27/07:30pm 13.7 12.6 9.9 78 2.0 SSW 6 9 3 5 1023.2 - 0.0
27/07:00pm 14.8 13.3 9.2 69 2.9 SW 7 11 4 6 1022.9 - 0.0
27/06:30pm 18.3 16.1 10.9 62 4.0 ESE 13 17 7 9 1022.6 - 0.0
27/06:00pm 18.5 16.5 11.6 64 3.8 ESE 13 20 7 11 1022.2 1022.2 0.0
27/05:30pm 18.7 16.4 11.8 64 3.8 ESE 15 20 8 11 1021.8 - 0.0
27/05:00pm 19.0 16.8 10.8 59 4.4 ESE 13 19 7 10 1021.5 - 0.0
27/04:30pm 19.9 16.7 9.8 52 5.4 ESE 17 22 9 12 1021.2 - 0.0
27/04:00pm 20.7 17.3 9.3 48 6.1 ESE 17 20 9 11 1021.1 - 0.0
27/03:30pm 20.7 17.1 9.9 50 5.8 ESE 19 22 10 12 1021.0 - 0.0
27/03:00pm 20.9 17.3 10.4 51 5.7 ESE 20 26 11 14 1021.0 1021.0 0.0
27/02:30pm 21.1 17.7 11.2 53 5.5 SE 20 28 11 15 1020.9 - 0.0
27/02:00pm 21.2 17.4 11.0 52 5.6 SE 22 28 12 15 1020.8 - 0.0
27/01:30pm 22.1 18.9 11.8 52 5.8 ESE 20 26 11 14 1021.1 - 0.0
27/01:00pm 23.7 19.1 5.6 31 9.2 S 19 32 10 17 1021.2 - 0.0
27/12:30pm 23.4 18.5 5.3 31 9.1 SSW 20 26 11 14 1021.6 - 0.0
27/12:00pm 23.3 18.8 4.3 29 9.3 SSW 17 24 9 13 1022.0 1022.0 0.0
27/11:30am 23.1 17.7 6.4 34 8.5 SSW 24 32 13 17 1022.5 - 0.0
27/11:00am 23.2 18.6 6.5 34 8.6 SSW 20 30 11 16 1022.9 - 0.0

Latest Capital City Observations: Canberra | Sydney | Melbourne | Brisbane | Adelaide | Perth | Hobart | Darwin

Other Formats:

Comma delimited format used in spreadsheet applications
http://www.bom.gov.au/fwo/IDQ60901/IDQ60901.94569.axf

JavaScript Object Notation format (JSON) in row-major order
http://www.bom.gov.au/fwo/IDQ60901/IDQ60901.94569.json